SWR80 LSZH-CYYZ
Flight info
| Callsign | SWR80 |
|---|---|
| Flight time | N/A |
| Altitude | 34000 |
| Route | VEBIT T51 LASUN T14 LUMEL T10 TORPA DCT REKLA DCT RLP UL613 ROTSI UM164 TRO UM729 RESMI UN491 LGL UN502 JSY DCT LIZAD DCT LULOX/M084F340 DCT GIPER DCT ELSOX DCT DINIM/M084F360 NATF MUSAK/N0473F380 N308A MIILS DCT LETAK IMEBA9 |
| Aircraft | B77W/H-SDE1E2E3FGHIJ2J3J4J5M1RWXY/LB1D1 |
Departure
| Time | 2026-05-06 09:19 |
|---|---|
| Airport | Zürich Airport (LSZH) |
Arrival
| Time | N/A |
|---|---|
| Airport | Toronto Pearson International Airport (CYYZ) |
| Time | Latitude | Longitude | Altitude | Speed | Heading |
|---|---|---|---|---|---|
| 2026-05-06 08:53 | 47.46038 | 8.55738 | 1411 ft | 0 kts | 6° |
| 2026-05-06 09:07 | 47.46019 | 8.55735 | 1404 ft | 4 kts | 6° |
| 2026-05-06 09:07 | 47.45992 | 8.55730 | 1409 ft | 4 kts | 6° |
| 2026-05-06 09:07 | 47.45969 | 8.55727 | 1410 ft | 4 kts | 357° |
| 2026-05-06 09:08 | 47.45950 | 8.55737 | 1412 ft | 4 kts | 290° |
| 2026-05-06 09:08 | 47.45946 | 8.55773 | 1408 ft | 4 kts | 275° |
| 2026-05-06 09:09 | 47.45946 | 8.55781 | 1406 ft | 0 kts | 276° |
| 2026-05-06 09:12 | 47.45949 | 8.55733 | 1412 ft | 15 kts | 276° |
| 2026-05-06 09:13 | 47.45914 | 8.55564 | 1406 ft | 21 kts | 214° |
| 2026-05-06 09:13 | 47.45886 | 8.55340 | 1404 ft | 26 kts | 276° |
| 2026-05-06 09:13 | 47.45916 | 8.55074 | 1404 ft | 26 kts | 293° |
| 2026-05-06 09:13 | 47.46058 | 8.54914 | 1407 ft | 26 kts | 334° |
| 2026-05-06 09:14 | 47.46223 | 8.54799 | 1406 ft | 26 kts | 335° |
| 2026-05-06 09:14 | 47.46390 | 8.54685 | 1411 ft | 26 kts | 334° |
| 2026-05-06 09:14 | 47.46556 | 8.54571 | 1405 ft | 26 kts | 336° |
| 2026-05-06 09:14 | 47.46722 | 8.54460 | 1406 ft | 26 kts | 337° |
| 2026-05-06 09:15 | 47.46890 | 8.54355 | 1410 ft | 26 kts | 336° |
| 2026-05-06 09:15 | 47.47055 | 8.54245 | 1410 ft | 26 kts | 334° |
| 2026-05-06 09:15 | 47.47219 | 8.54126 | 1406 ft | 26 kts | 333° |
| 2026-05-06 09:15 | 47.47386 | 8.54016 | 1408 ft | 26 kts | 336° |
| 2026-05-06 09:16 | 47.47538 | 8.53913 | 1411 ft | 15 kts | 333° |
| 2026-05-06 09:16 | 47.47592 | 8.53840 | 1411 ft | 5 kts | 300° |
| 2026-05-06 09:16 | 47.47596 | 8.53786 | 1408 ft | 5 kts | 263° |
| 2026-05-06 09:16 | 47.47587 | 8.53718 | 1410 ft | 10 kts | 253° |
| 2026-05-06 09:17 | 47.47527 | 8.53633 | 1408 ft | 13 kts | 173° |
| 2026-05-06 09:17 | 47.47514 | 8.53640 | 1409 ft | 0 kts | 158° |
| 2026-05-06 09:18 | 47.47497 | 8.53650 | 1410 ft | 13 kts | 158° |
| 2026-05-06 09:18 | 47.47162 | 8.53878 | 1410 ft | 96 kts | 155° |
| 2026-05-06 09:18 | 47.46301 | 8.54476 | 1412 ft | 174 kts | 154° |
| 2026-05-06 09:19 | 47.45054 | 8.55330 | 1711 ft | 207 kts | 155° |
| 2026-05-06 09:19 | 47.43691 | 8.56292 | 2348 ft | 222 kts | 155° |
| 2026-05-06 09:19 | 47.42321 | 8.57257 | 3325 ft | 217 kts | 155° |
| 2026-05-06 09:19 | 47.40935 | 8.58246 | 3921 ft | 222 kts | 155° |
| 2026-05-06 09:20 | 47.39552 | 8.59235 | 4567 ft | 226 kts | 155° |
| 2026-05-06 09:20 | 47.38101 | 8.60135 | 5118 ft | 231 kts | 170° |
| 2026-05-06 09:20 | 47.36471 | 8.59824 | 5379 ft | 247 kts | 211° |
| 2026-05-06 09:20 | 47.35278 | 8.57985 | 5957 ft | 258 kts | 245° |
| 2026-05-06 09:21 | 47.34759 | 8.55399 | 6483 ft | 269 kts | 257° |
| 2026-05-06 09:21 | 47.34375 | 8.52671 | 7214 ft | 275 kts | 257° |
| 2026-05-06 09:21 | 47.33995 | 8.49891 | 8061 ft | 279 kts | 257° |
| 2026-05-06 09:21 | 47.33609 | 8.47071 | 8906 ft | 282 kts | 256° |
| 2026-05-06 09:22 | 47.33216 | 8.44214 | 9728 ft | 286 kts | 256° |
| 2026-05-06 09:22 | 47.32811 | 8.41306 | 10392 ft | 295 kts | 255° |
| 2026-05-06 09:22 | 47.32372 | 8.38215 | 10646 ft | 321 kts | 255° |
| 2026-05-06 09:22 | 47.31967 | 8.34850 | 10833 ft | 349 kts | 263° |
| 2026-05-06 09:23 | 47.32081 | 8.31149 | 11273 ft | 371 kts | 276° |
| 2026-05-06 09:23 | 47.32493 | 8.27410 | 12143 ft | 374 kts | 278° |
| 2026-05-06 09:23 | 47.32916 | 8.23644 | 12939 ft | 379 kts | 278° |
| 2026-05-06 09:23 | 47.33343 | 8.19774 | 14025 ft | 387 kts | 278° |
| 2026-05-06 09:24 | 47.33765 | 8.15841 | 15116 ft | 394 kts | 277° |
| 2026-05-06 09:24 | 47.34192 | 8.11760 | 16219 ft | 400 kts | 277° |